Time;durP1;ratioP1;P1;durP2;ratioP2;P2;SDS_P1;SDS_P2;PMS_P1;PMS_P2;Temp;Humidity;BMP_temperature;BMP_pressure;BME280_temperature;BME280_humidity;BME280_pressure;Samples;Min_cycle;Max_cycle;Signal;HPM_P1;HPM_P2
2022/08/04 00:02:02;;;;;;;5.20;2.05;;;;;;;;;;5074884;28;20268;-47
2022/08/04 00:04:48;;;;;;;5.28;2.13;;;;;;;;;;5073656;28;20630;-48
2022/08/04 00:07:26;;;;;;;3.45;1.88;;;;;;;;;;5073929;28;20206;-44
2022/08/04 00:10:13;;;;;;;2.70;1.75;;;;;;;;;;5074165;28;20196;-46
2022/08/04 00:12:43;;;;;;;6.70;1.70;;;;;;;;;;5074663;28;20260;-46
2022/08/04 00:15:13;;;;;;;3.22;1.90;;;;;;;;;;5074712;28;20268;-45
2022/08/04 00:17:53;;;;;;;2.70;1.90;;;;;;;;;;5074704;28;20203;-44
2022/08/04 00:20:20;;;;;;;3.63;1.70;;;;;;;;;;5074377;28;20187;-44
2022/08/04 00:22:48;;;;;;;2.42;1.70;;;;;;;;;;5074384;28;20206;-49
2022/08/04 00:25:15;;;;;;;5.90;1.65;;;;;;;;;;5073361;28;20548;-47
2022/08/04 00:27:42;;;;;;;9.77;1.50;;;;;;;;;;5074447;28;20246;-47
2022/08/04 00:30:10;;;;;;;4.63;2.10;;;;;;;;;;5074093;28;20204;-47
2022/08/04 00:32:39;;;;;;;3.67;1.80;;;;;;;;;;5074506;28;20268;-46
2022/08/04 00:35:08;;;;;;;3.22;1.90;;;;;;;;;;5074936;28;20214;-45
2022/08/04 00:37:39;;;;;;;6.22;2.03;;;;;;;;;;5074219;28;20257;-46
2022/08/04 00:40:22;;;;;;;5.72;2.00;;;;;;;;;;5074181;28;20548;-46
2022/08/04 00:43:08;;;;;;;5.70;2.53;;;;;;;;;;5076130;28;20210;-45
2022/08/04 00:45:50;;;;;;;5.47;2.42;;;;;;;;;;5078234;28;20203;-46
2022/08/04 00:48:58;;;;;;;5.60;2.10;;;;;;;;;;5078093;28;20213;-47
2022/08/04 00:51:37;;;;;;;5.53;2.13;;;;;;;;;;5078235;28;20244;-45
2022/08/04 00:54:37;;;;;;;3.92;2.28;;;;;;;;;;5078077;28;20257;-43
2022/08/04 00:57:27;;;;;;;2.00;1.55;;;;;;;;;;5060345;28;20214;-45
2022/08/04 01:00:12;;;;;;;5.53;2.00;;;;;;;;;;5076936;28;20243;-46
2022/08/04 01:02:39;;;;;;;2.97;1.80;;;;;;;;;;5077564;28;20231;-47
2022/08/04 01:05:33;;;;;;;4.78;2.00;;;;;;;;;;5078279;28;20211;-45
2022/08/04 01:08:27;;;;;;;3.10;2.28;;;;;;;;;;5078054;28;20510;-43
2022/08/04 01:10:58;;;;;;;5.32;2.40;;;;;;;;;;5077551;28;20622;-44
2022/08/04 01:13:46;;;;;;;3.10;1.90;;;;;;;;;;5078249;28;20215;-47
2022/08/04 01:16:16;;;;;;;6.22;2.55;;;;;;;;;;5077805;28;20525;-46
2022/08/04 01:19:07;;;;;;;6.15;2.25;;;;;;;;;;5077626;28;20223;-49
2022/08/04 01:22:02;;;;;;;9.85;1.67;;;;;;;;;;5077129;28;20203;-43
2022/08/04 01:24:50;;;;;;;7.05;1.50;;;;;;;;;;5077630;28;20500;-44
2022/08/04 01:27:47;;;;;;;3.10;1.77;;;;;;;;;;5076590;28;20199;-43
2022/08/04 01:30:14;;;;;;;3.42;1.40;;;;;;;;;;5077317;28;20502;-43
2022/08/04 01:32:53;;;;;;;5.03;1.92;;;;;;;;;;5077214;28;20203;-45
2022/08/04 01:35:25;;;;;;;5.63;1.85;;;;;;;;;;5076129;28;20199;-43
2022/08/04 01:38:25;;;;;;;3.17;2.25;;;;;;;;;;5076410;28;20273;-44
2022/08/04 01:40:55;;;;;;;2.17;1.70;;;;;;;;;;5076814;28;20200;-43
2022/08/04 01:43:23;;;;;;;4.15;2.08;;;;;;;;;;5077187;28;20187;-45
2022/08/04 01:45:56;;;;;;;3.28;1.70;;;;;;;;;;5075947;28;20195;-45
2022/08/04 01:48:24;;;;;;;2.95;2.42;;;;;;;;;;5076874;28;20222;-45
2022/08/04 01:50:53;;;;;;;6.38;2.63;;;;;;;;;;5076886;28;20269;-43
2022/08/04 01:53:20;;;;;;;6.13;2.67;;;;;;;;;;5076473;28;20521;-43
2022/08/04 01:55:48;;;;;;;6.63;3.13;;;;;;;;;;5076832;28;20203;-46
2022/08/04 01:58:23;;;;;;;3.83;2.03;;;;;;;;;;5076449;28;20272;-44
2022/08/04 02:01:01;;;;;;;2.63;2.10;;;;;;;;;;5076661;28;20200;-45
2022/08/04 02:03:36;;;;;;;3.22;2.08;;;;;;;;;;5076496;28;20239;-44
2022/08/04 02:06:30;;;;;;;3.10;1.77;;;;;;;;;;5076520;28;20199;-44
2022/08/04 02:09:40;;;;;;;2.60;1.77;;;;;;;;;;5076326;28;20649;-43
2022/08/04 02:12:53;;;;;;;6.13;2.53;;;;;;;;;;5076756;28;20203;-46
2022/08/04 02:15:24;;;;;;;5.00;2.42;;;;;;;;;;5065433;28;20557;-45
2022/08/04 02:18:23;;;;;;;9.40;2.63;;;;;;;;;;5075381;28;20271;-45
2022/08/04 02:20:57;;;;;;;4.38;2.70;;;;;;;;;;5071224;28;20214;-44
2022/08/04 02:23:38;;;;;;;6.32;2.78;;;;;;;;;;5076400;28;20183;-45
2022/08/04 02:26:15;;;;;;;3.97;2.25;;;;;;;;;;5076010;28;20527;-48
2022/08/04 02:29:07;;;;;;;4.78;2.22;;;;;;;;;;5075775;28;20202;-47
2022/08/04 02:31:56;;;;;;;5.03;2.70;;;;;;;;;;5075599;28;20203;-47
2022/08/04 02:34:28;;;;;;;9.55;2.60;;;;;;;;;;5075540;28;20276;-46
2022/08/04 02:36:58;;;;;;;6.45;2.72;;;;;;;;;;5075187;28;20187;-44
2022/08/04 02:39:32;;;;;;;4.13;2.67;;;;;;;;;;5075338;28;20234;-45
2022/08/04 02:42:14;;;;;;;6.03;2.95;;;;;;;;;;5075478;28;20210;-45
2022/08/04 02:44:42;;;;;;;5.25;2.92;;;;;;;;;;5075327;28;20268;-47
2022/08/04 02:47:09;;;;;;;4.25;3.00;;;;;;;;;;5075283;28;20192;-45
2022/08/04 02:49:37;;;;;;;4.97;2.78;;;;;;;;;;5075215;28;20203;-44
2022/08/04 02:52:09;;;;;;;3.97;2.50;;;;;;;;;;5075128;28;20207;-46
2022/08/04 02:54:38;;;;;;;4.63;3.10;;;;;;;;;;5074377;28;20530;-47
2022/08/04 02:57:11;;;;;;;2.95;2.50;;;;;;;;;;5075277;28;20199;-45
2022/08/04 03:00:05;;;;;;;8.15;2.38;;;;;;;;;;5074975;28;20681;-46
2022/08/04 03:03:03;;;;;;;3.95;2.10;;;;;;;;;;5075326;28;20249;-43
2022/08/04 03:05:50;;;;;;;5.68;2.40;;;;;;;;;;5074220;28;20222;-46
2022/08/04 03:08:43;;;;;;;4.93;2.08;;;;;;;;;;5075089;28;20195;-46
2022/08/04 03:11:19;;;;;;;4.00;2.83;;;;;;;;;;5075062;28;20203;-45
2022/08/04 03:13:49;;;;;;;5.53;2.30;;;;;;;;;;5074815;28;20272;-46
2022/08/04 03:16:41;;;;;;;5.82;2.92;;;;;;;;;;5075062;28;20222;-47
2022/08/04 03:19:11;;;;;;;4.72;2.35;;;;;;;;;;5075014;28;20216;-45
2022/08/04 03:22:04;;;;;;;5.70;2.40;;;;;;;;;;5074692;28;20306;-44
2022/08/04 03:24:31;;;;;;;7.13;2.30;;;;;;;;;;5074091;28;20618;-48
2022/08/04 03:27:16;;;;;;;5.47;2.25;;;;;;;;;;5074821;28;20545;-44
2022/08/04 03:30:08;;;;;;;7.40;2.40;;;;;;;;;;5075163;28;20207;-46
2022/08/04 03:33:00;;;;;;;5.47;2.20;;;;;;;;;;5075016;28;20199;-46
2022/08/04 03:35:39;;;;;;;6.07;2.50;;;;;;;;;;5075765;28;20630;-44
2022/08/04 03:38:12;;;;;;;4.90;2.38;;;;;;;;;;5075370;28;20186;-46
2022/08/04 03:41:07;;;;;;;4.80;2.70;;;;;;;;;;5073980;28;20227;-46
2022/08/04 03:43:43;;;;;;;2.78;2.47;;;;;;;;;;5074943;28;20203;-45
2022/08/04 03:46:44;;;;;;;4.63;2.50;;;;;;;;;;5075122;28;20200;-48
2022/08/04 03:49:29;;;;;;;5.90;2.50;;;;;;;;;;5074620;28;20294;-43
2022/08/04 03:55:18;;;;;;;2.78;2.55;;;;;;;;;;5075093;28;20211;-46
2022/08/04 03:57:57;;;;;;;7.53;2.75;;;;;;;;;;5075279;28;20230;-48
2022/08/04 04:00:49;;;;;;;6.88;2.80;;;;;;;;;;5074934;28;20260;-47
2022/08/04 04:03:35;;;;;;;6.78;2.80;;;;;;;;;;5071998;28;20242;-46
2022/08/04 04:06:23;;;;;;;7.43;2.80;;;;;;;;;;5074772;28;20202;-46
2022/08/04 04:09:09;;;;;;;6.72;3.20;;;;;;;;;;5075103;28;20192;-47
2022/08/04 04:11:55;;;;;;;3.70;2.95;;;;;;;;;;5075048;28;20218;-44
2022/08/04 04:14:58;;;;;;;10.55;4.32;;;;;;;;;;5074403;28;20700;-48
2022/08/04 04:17:59;;;;;;;4.57;3.30;;;;;;;;;;5077589;28;20198;-43
2022/08/04 04:20:38;;;;;;;6.57;3.72;;;;;;;;;;5078223;28;20658;-46
2022/08/04 04:23:08;;;;;;;8.18;3.47;;;;;;;;;;5078595;28;20210;-49
2022/08/04 04:25:55;;;;;;;5.88;3.97;;;;;;;;;;5078722;28;20203;-47
2022/08/04 04:28:32;;;;;;;6.78;3.65;;;;;;;;;;5078471;28;20203;-49
2022/08/04 04:31:33;;;;;;;10.50;4.03;;;;;;;;;;5078646;28;20211;-45
2022/08/04 04:34:22;;;;;;;6.95;4.10;;;;;;;;;;5078088;28;20279;-46
2022/08/04 04:37:18;;;;;;;7.60;4.10;;;;;;;;;;5077206;28;20673;-46
2022/08/04 04:39:51;;;;;;;6.30;4.10;;;;;;;;;;5077885;28;20223;-47
2022/08/04 04:42:29;;;;;;;9.38;4.22;;;;;;;;;;5077531;28;20199;-48
2022/08/04 04:45:14;;;;;;;6.53;4.18;;;;;;;;;;5077316;28;20199;-43
2022/08/04 04:48:05;;;;;;;12.25;4.60;;;;;;;;;;5078008;28;20207;-44
2022/08/04 04:50:42;;;;;;;5.28;4.18;;;;;;;;;;5078206;28;20218;-47
2022/08/04 04:53:17;;;;;;;9.52;4.40;;;;;;;;;;5078445;28;20198;-44
2022/08/04 04:55:58;;;;;;;5.20;4.13;;;;;;;;;;5077115;28;20203;-45
2022/08/04 04:58:26;;;;;;;5.07;3.88;;;;;;;;;;5077231;28;20210;-45
2022/08/04 05:01:30;;;;;;;7.40;4.50;;;;;;;;;;5076869;28;20273;-46
2022/08/04 05:04:11;;;;;;;4.35;3.95;;;;;;;;;;5077537;28;20246;-48
2022/08/04 05:06:51;;;;;;;5.13;3.75;;;;;;;;;;5077627;28;20286;-43
2022/08/04 05:09:29;;;;;;;5.60;3.60;;;;;;;;;;5077756;28;20260;-48
2022/08/04 05:12:01;;;;;;;4.18;3.65;;;;;;;;;;5077838;28;20510;-45
2022/08/04 05:14:49;;;;;;;7.60;3.83;;;;;;;;;;5077576;28;20253;-43
2022/08/04 05:17:21;;;;;;;5.45;3.40;;;;;;;;;;5077309;28;20664;-48
2022/08/04 05:19:48;;;;;;;3.40;3.10;;;;;;;;;;5076915;28;20520;-48
2022/08/04 05:22:30;;;;;;;7.95;3.08;;;;;;;;;;5077304;28;20619;-46
2022/08/04 05:25:03;;;;;;;4.68;2.78;;;;;;;;;;5077408;28;20188;-43
2022/08/04 05:27:35;;;;;;;7.35;3.33;;;;;;;;;;5076206;28;20226;-45
2022/08/04 05:30:08;;;;;;;4.57;3.28;;;;;;;;;;5076986;28;20290;-49
2022/08/04 05:32:42;;;;;;;4.03;3.08;;;;;;;;;;5076794;28;20199;-48
2022/08/04 05:35:13;;;;;;;3.55;2.83;;;;;;;;;;5077457;28;20269;-45
2022/08/04 05:38:02;;;;;;;5.63;2.88;;;;;;;;;;5076487;28;20208;-46
2022/08/04 05:40:29;;;;;;;3.35;2.70;;;;;;;;;;5077593;28;20280;-48
2022/08/04 05:42:56;;;;;;;4.55;2.15;;;;;;;;;;5077353;28;20542;-44
2022/08/04 05:45:24;;;;;;;3.08;2.20;;;;;;;;;;5076243;28;20646;-43
2022/08/04 05:47:52;;;;;;;3.60;2.10;;;;;;;;;;5076841;28;20576;-45
2022/08/04 05:50:20;;;;;;;3.83;2.35;;;;;;;;;;5076727;28;20622;-49
2022/08/04 05:52:49;;;;;;;3.55;2.38;;;;;;;;;;5076242;28;20585;-44
2022/08/04 05:55:16;;;;;;;3.30;2.20;;;;;;;;;;5076691;28;20200;-48
2022/08/04 05:58:03;;;;;;;3.47;1.90;;;;;;;;;;5076935;28;20207;-46
2022/08/04 06:00:30;;;;;;;3.58;1.90;;;;;;;;;;5076622;28;20273;-43
2022/08/04 06:03:05;;;;;;;4.68;2.20;;;;;;;;;;5076071;28;20242;-45
2022/08/04 06:05:32;;;;;;;3.55;2.25;;;;;;;;;;5076268;28;20214;-46
2022/08/04 06:07:58;;;;;;;3.25;2.08;;;;;;;;;;5075478;28;20265;-44
2022/08/04 06:10:39;;;;;;;3.85;2.08;;;;;;;;;;5075891;28;20260;-46
2022/08/04 06:13:09;;;;;;;4.85;1.85;;;;;;;;;;5075478;28;20269;-43
2022/08/04 06:15:57;;;;;;;6.70;1.83;;;;;;;;;;5075776;28;20184;-43
2022/08/04 06:18:28;;;;;;;3.30;1.85;;;;;;;;;;5076721;28;20264;-46
2022/08/04 06:21:18;;;;;;;3.42;1.65;;;;;;;;;;5075614;28;20246;-47
2022/08/04 06:23:45;;;;;;;1.92;1.25;;;;;;;;;;5075500;28;20199;-45
2022/08/04 06:26:29;;;;;;;3.13;1.50;;;;;;;;;;5075703;28;20272;-47
2022/08/04 06:28:56;;;;;;;1.52;1.42;;;;;;;;;;5075312;28;20273;-47
2022/08/04 06:31:42;;;;;;;3.17;1.45;;;;;;;;;;5076031;28;20587;-47
2022/08/04 06:34:30;;;;;;;1.92;1.33;;;;;;;;;;5075413;28;20649;-45
2022/08/04 06:36:57;;;;;;;1.80;1.50;;;;;;;;;;5075574;28;20199;-44
2022/08/04 06:39:26;;;;;;;2.97;1.30;;;;;;;;;;5075112;28;20196;-48
2022/08/04 06:41:54;;;;;;;1.60;1.27;;;;;;;;;;5074590;28;20207;-49
2022/08/04 06:44:45;;;;;;;5.35;1.50;;;;;;;;;;5061515;28;20651;-46
2022/08/04 06:47:13;;;;;;;4.95;1.60;;;;;;;;;;5075802;28;20207;-46
2022/08/04 06:49:40;;;;;;;2.15;1.70;;;;;;;;;;5075594;28;20207;-48
2022/08/04 06:52:28;;;;;;;1.75;1.30;;;;;;;;;;5075016;28;20203;-46
2022/08/04 06:54:56;;;;;;;1.60;1.50;;;;;;;;;;5075365;28;20538;-48
2022/08/04 06:57:28;;;;;;;2.83;1.48;;;;;;;;;;5075687;28;20636;-44
2022/08/04 07:00:11;;;;;;;2.28;1.42;;;;;;;;;;5075165;28;20223;-48
2022/08/04 07:02:41;;;;;;;2.40;1.70;;;;;;;;;;5075374;28;20223;-46
2022/08/04 07:05:09;;;;;;;4.88;1.38;;;;;;;;;;5074277;28;20515;-48
2022/08/04 07:07:37;;;;;;;4.00;1.65;;;;;;;;;;5075643;28;20280;-46
2022/08/04 07:10:28;;;;;;;1.85;1.30;;;;;;;;;;5074806;28;20575;-46
2022/08/04 07:12:56;;;;;;;3.17;1.52;;;;;;;;;;5075320;28;20209;-48
2022/08/04 07:15:24;;;;;;;4.00;1.30;;;;;;;;;;5075249;28;20264;-47
2022/08/04 07:17:52;;;;;;;2.20;1.50;;;;;;;;;;5075151;28;20199;-45
2022/08/04 07:20:19;;;;;;;2.90;1.67;;;;;;;;;;5074960;28;20673;-47
2022/08/04 07:23:06;;;;;;;6.25;1.38;;;;;;;;;;5075205;28;20587;-46
2022/08/04 07:25:35;;;;;;;2.53;1.50;;;;;;;;;;5075245;28;20219;-43
2022/08/04 07:28:25;;;;;;;6.05;1.50;;;;;;;;;;5075149;28;20711;-47
2022/08/04 07:30:53;;;;;;;3.83;1.50;;;;;;;;;;5074883;28;20213;-45
2022/08/04 07:33:20;;;;;;;6.07;1.40;;;;;;;;;;5074748;28;20591;-48
2022/08/04 07:35:52;;;;;;;4.97;1.25;;;;;;;;;;5075018;28;20195;-49
2022/08/04 07:38:41;;;;;;;2.10;1.20;;;;;;;;;;5074739;28;20235;-46
2022/08/04 07:41:22;;;;;;;2.30;1.15;;;;;;;;;;5074779;28;20591;-46
2022/08/04 07:44:06;;;;;;;2.53;1.80;;;;;;;;;;5073965;28;20204;-44
2022/08/04 07:46:33;;;;;;;1.80;1.20;;;;;;;;;;5075265;28;20568;-46
2022/08/04 07:49:00;;;;;;;2.38;1.15;;;;;;;;;;5075177;28;20214;-44
2022/08/04 07:51:29;;;;;;;1.63;1.10;;;;;;;;;;5074715;28;20227;-47
2022/08/04 07:53:57;;;;;;;1.95;1.33;;;;;;;;;;5075180;28;20495;-45
2022/08/04 07:56:25;;;;;;;2.20;1.17;;;;;;;;;;5073846;28;20569;-48
2022/08/04 07:58:53;;;;;;;2.72;1.35;;;;;;;;;;5073787;28;20309;-46
2022/08/04 08:01:22;;;;;;;2.25;1.38;;;;;;;;;;5073777;28;20227;-45
2022/08/04 08:03:51;;;;;;;3.30;1.20;;;;;;;;;;5073559;28;20227;-45
2022/08/04 08:06:18;;;;;;;2.92;1.10;;;;;;;;;;5073875;28;20215;-44
2022/08/04 08:09:02;;;;;;;1.63;1.00;;;;;;;;;;5074722;28;20530;-48
2022/08/04 08:11:47;;;;;;;4.47;0.90;;;;;;;;;;5074018;28;20202;-47
2022/08/04 08:14:34;;;;;;;6.00;1.25;;;;;;;;;;5074720;28;20210;-47
2022/08/04 08:17:02;;;;;;;1.95;1.17;;;;;;;;;;5074929;28;20199;-48
2022/08/04 08:19:33;;;;;;;3.15;1.17;;;;;;;;;;5073454;28;20206;-49
2022/08/04 08:22:01;;;;;;;1.88;1.48;;;;;;;;;;5074411;28;20218;-47
2022/08/04 08:24:29;;;;;;;2.50;1.13;;;;;;;;;;5074589;28;20541;-47
2022/08/04 08:26:58;;;;;;;2.00;1.27;;;;;;;;;;5074734;28;20230;-46
2022/08/04 08:29:28;;;;;;;4.10;1.38;;;;;;;;;;5074469;28;20280;-48
2022/08/04 08:31:55;;;;;;;1.65;1.13;;;;;;;;;;5073931;28;20234;-49
2022/08/04 08:34:30;;;;;;;2.45;1.10;;;;;;;;;;5074319;28;20199;-47
2022/08/04 08:37:02;;;;;;;2.88;1.42;;;;;;;;;;5074427;28;20654;-47
2022/08/04 08:39:37;;;;;;;3.17;1.00;;;;;;;;;;5073790;28;20261;-46
2022/08/04 08:42:25;;;;;;;2.03;0.98;;;;;;;;;;5074404;28;20198;-48
2022/08/04 08:44:52;;;;;;;1.83;1.10;;;;;;;;;;5074442;28;20538;-47
2022/08/04 08:47:56;;;;;;;2.63;0.90;;;;;;;;;;5074357;28;20204;-43
2022/08/04 08:50:51;;;;;;;1.25;1.02;;;;;;;;;;5074427;28;20215;-48
2022/08/04 08:53:52;;;;;;;1.70;1.08;;;;;;;;;;5074230;28;20217;-47
2022/08/04 08:56:33;;;;;;;1.48;1.13;;;;;;;;;;5074207;28;20202;-49
2022/08/04 08:59:09;;;;;;;1.98;0.90;;;;;;;;;;5073557;28;20285;-47
2022/08/04 09:02:18;;;;;;;1.48;1.00;;;;;;;;;;5073845;28;20211;-44
2022/08/04 09:05:01;;;;;;;9.40;1.40;;;;;;;;;;5077024;28;20203;-47
2022/08/04 09:08:04;;;;;;;2.45;1.23;;;;;;;;;;5077688;28;20199;-48
2022/08/04 09:10:44;;;;;;;3.38;0.90;;;;;;;;;;5059582;28;20207;-48
2022/08/04 09:13:33;;;;;;;1.20;1.10;;;;;;;;;;5077458;28;20646;-43
2022/08/04 09:16:20;;;;;;;2.10;1.33;;;;;;;;;;5076868;28;20516;-49
2022/08/04 09:18:55;;;;;;;1.30;0.80;;;;;;;;;;5076739;28;20528;-48
2022/08/04 09:21:43;;;;;;;0.80;0.80;;;;;;;;;;5077149;28;20226;-46
2022/08/04 09:24:24;;;;;;;2.55;0.80;;;;;;;;;;5076878;28;20542;-47
2022/08/04 09:27:07;;;;;;;2.30;1.00;;;;;;;;;;5076945;28;20202;-48
2022/08/04 09:29:34;;;;;;;2.97;1.02;;;;;;;;;;5076656;28;20199;-46
2022/08/04 09:32:10;;;;;;;2.50;1.17;;;;;;;;;;5077197;28;20261;-47
2022/08/04 09:34:56;;;;;;;1.48;0.90;;;;;;;;;;5076375;28;20199;-49
2022/08/04 09:37:36;;;;;;;4.10;1.20;;;;;;;;;;5077514;28;20532;-49
2022/08/04 09:40:25;;;;;;;3.38;0.98;;;;;;;;;;5076619;28;20207;-48
2022/08/04 09:43:04;;;;;;;1.85;0.98;;;;;;;;;;5076452;28;20212;-45
2022/08/04 09:45:51;;;;;;;2.72;0.98;;;;;;;;;;5077042;28;20584;-48
2022/08/04 09:48:36;;;;;;;1.20;1.00;;;;;;;;;;5077255;28;20206;-43
2022/08/04 09:51:13;;;;;;;1.58;1.08;;;;;;;;;;5077081;28;20203;-45
2022/08/04 09:54:22;;;;;;;1.52;0.80;;;;;;;;;;5076231;28;20264;-45
2022/08/04 09:57:07;;;;;;;1.80;1.10;;;;;;;;;;5059157;28;20207;-43
2022/08/04 10:00:03;;;;;;;4.15;1.00;;;;;;;;;;5076191;28;20272;-43
2022/08/04 10:02:52;;;;;;;1.58;1.00;;;;;;;;;;5076706;28;20284;-47
2022/08/04 10:05:35;;;;;;;3.63;0.93;;;;;;;;;;5076248;28;20247;-43
2022/08/04 10:08:14;;;;;;;4.43;1.15;;;;;;;;;;5076353;28;20614;-48
2022/08/04 10:11:03;;;;;;;1.90;1.15;;;;;;;;;;5077142;28;20191;-48
2022/08/04 10:13:41;;;;;;;1.20;1.10;;;;;;;;;;5076353;28;20190;-44
2022/08/04 10:16:14;;;;;;;1.30;1.05;;;;;;;;;;5075773;28;20187;-48
2022/08/04 10:18:52;;;;;;;2.05;1.00;;;;;;;;;;5076188;28;20260;-48
2022/08/04 10:21:22;;;;;;;1.88;1.10;;;;;;;;;;5075186;28;20560;-43
2022/08/04 10:24:07;;;;;;;1.50;1.15;;;;;;;;;;5076292;28;20569;-43
2022/08/04 10:26:54;;;;;;;1.55;0.93;;;;;;;;;;5076131;28;20215;-45
2022/08/04 10:29:37;;;;;;;1.05;0.90;;;;;;;;;;5075114;28;20268;-44
2022/08/04 10:32:16;;;;;;;2.42;1.30;;;;;;;;;;5075779;28;20207;-44
2022/08/04 10:35:02;;;;;;;1.00;0.82;;;;;;;;;;5076023;28;20202;-43
2022/08/04 10:37:38;;;;;;;5.68;0.90;;;;;;;;;;5075433;28;20210;-48
2022/08/04 10:40:44;;;;;;;2.25;1.10;;;;;;;;;;5075236;28;20233;-46
2022/08/04 10:43:45;;;;;;;3.20;0.80;;;;;;;;;;5076115;28;20191;-47
2022/08/04 10:46:20;;;;;;;4.28;1.13;;;;;;;;;;5075947;28;20202;-43
2022/08/04 10:48:55;;;;;;;1.85;1.30;;;;;;;;;;5075671;28;20209;-48
2022/08/04 10:51:26;;;;;;;1.45;1.10;;;;;;;;;;5076010;28;20191;-46
2022/08/04 10:54:00;;;;;;;2.28;1.10;;;;;;;;;;5075953;28;20188;-46
2022/08/04 10:56:30;;;;;;;2.17;0.88;;;;;;;;;;5074587;28;20206;-48
2022/08/04 10:59:02;;;;;;;2.05;0.98;;;;;;;;;;5075991;28;20268;-45
2022/08/04 11:01:35;;;;;;;2.08;1.10;;;;;;;;;;5074872;28;20585;-47
2022/08/04 11:04:30;;;;;;;1.52;1.00;;;;;;;;;;5075301;28;20630;-47
2022/08/04 11:06:58;;;;;;;1.92;1.10;;;;;;;;;;5074643;28;20187;-47
2022/08/04 11:09:27;;;;;;;1.45;1.00;;;;;;;;;;5074505;28;20649;-45
2022/08/04 11:12:05;;;;;;;2.25;1.05;;;;;;;;;;5074526;28;20203;-44
2022/08/04 11:14:37;;;;;;;1.83;1.10;;;;;;;;;;5075374;28;20206;-45
2022/08/04 11:17:14;;;;;;;3.90;1.30;;;;;;;;;;5074500;28;20210;-46
2022/08/04 11:19:53;;;;;;;4.25;1.00;;;;;;;;;;5074213;28;20203;-46
2022/08/04 11:22:46;;;;;;;3.78;1.20;;;;;;;;;;5075578;28;20215;-44
2022/08/04 11:25:22;;;;;;;1.02;0.93;;;;;;;;;;5074278;28;20214;-46
2022/08/04 11:28:00;;;;;;;2.65;1.00;;;;;;;;;;5074120;28;20206;-43
2022/08/04 11:30:36;;;;;;;3.83;1.00;;;;;;;;;;5074744;28;20210;-46
2022/08/04 11:33:14;;;;;;;2.70;1.25;;;;;;;;;;5073977;28;20707;-44
2022/08/04 11:35:45;;;;;;;2.88;0.90;;;;;;;;;;5075039;28;20510;-44
2022/08/04 11:38:24;;;;;;;3.65;0.90;;;;;;;;;;5074981;28;20199;-48
2022/08/04 11:41:04;;;;;;;3.80;1.40;;;;;;;;;;5075144;28;20553;-47
2022/08/04 11:43:54;;;;;;;2.10;1.00;;;;;;;;;;5074190;28;20202;-48
2022/08/04 11:46:47;;;;;;;1.10;0.98;;;;;;;;;;5075191;28;20621;-43
2022/08/04 11:49:29;;;;;;;1.52;1.10;;;;;;;;;;5074448;28;20205;-46
2022/08/04 11:51:59;;;;;;;1.30;1.20;;;;;;;;;;5074301;28;20203;-48
2022/08/04 11:54:26;;;;;;;1.10;0.95;;;;;;;;;;5074825;28;20337;-48
2022/08/04 11:56:54;;;;;;;1.58;0.90;;;;;;;;;;5074521;28;20234;-48
2022/08/04 11:59:22;;;;;;;2.95;1.00;;;;;;;;;;5073974;28;20648;-45
2022/08/04 12:02:06;;;;;;;1.55;1.00;;;;;;;;;;5074014;28;20643;-46
2022/08/04 12:04:41;;;;;;;1.90;1.00;;;;;;;;;;5075051;28;20192;-47
2022/08/04 12:07:45;;;;;;;2.20;1.15;;;;;;;;;;5073988;28;20210;-48
2022/08/04 12:10:19;;;;;;;2.60;1.10;;;;;;;;;;5074767;28;20206;-47
2022/08/04 12:13:20;;;;;;;4.95;1.00;;;;;;;;;;5074760;28;20215;-45
2022/08/04 12:16:10;;;;;;;3.35;0.90;;;;;;;;;;5074295;28;20215;-46
2022/08/04 12:18:39;;;;;;;1.83;0.93;;;;;;;;;;5071688;28;20199;-47
2022/08/04 12:21:35;;;;;;;2.03;1.10;;;;;;;;;;5073586;28;20296;-44
2022/08/04 12:24:15;;;;;;;3.10;1.10;;;;;;;;;;5073298;28;20203;-44
2022/08/04 12:26:49;;;;;;;1.75;1.25;;;;;;;;;;5073588;28;20653;-45
2022/08/04 12:29:17;;;;;;;1.50;1.20;;;;;;;;;;5073944;28;20206;-47
2022/08/04 12:31:48;;;;;;;3.28;0.95;;;;;;;;;;5073585;28;20216;-48
2022/08/04 12:34:33;;;;;;;2.08;1.25;;;;;;;;;;5073642;28;20184;-43
2022/08/04 12:37:06;;;;;;;2.10;0.90;;;;;;;;;;5074231;28;20211;-49
2022/08/04 12:39:34;;;;;;;1.13;0.90;;;;;;;;;;5078403;28;20211;-50
2022/08/04 12:42:26;;;;;;;2.05;1.00;;;;;;;;;;5078358;28;20232;-46
2022/08/04 12:44:54;;;;;;;3.40;1.17;;;;;;;;;;5077169;28;20204;-44
2022/08/04 12:47:23;;;;;;;2.63;1.20;;;;;;;;;;5078231;28;20570;-48
2022/08/04 12:50:00;;;;;;;2.40;0.80;;;;;;;;;;5077236;28;20207;-44
2022/08/04 12:52:42;;;;;;;4.20;1.20;;;;;;;;;;5077513;28;20207;-48
2022/08/04 12:55:32;;;;;;;1.55;1.20;;;;;;;;;;5077497;28;20207;-49
2022/08/04 12:58:01;;;;;;;3.00;0.90;;;;;;;;;;5076913;28;20207;-48
2022/08/04 13:00:34;;;;;;;4.13;1.00;;;;;;;;;;5077163;28;20207;-48
2022/08/04 13:03:10;;;;;;;1.10;1.00;;;;;;;;;;5077743;28;20285;-45
2022/08/04 13:05:41;;;;;;;1.70;1.10;;;;;;;;;;5077824;28;20302;-46
2022/08/04 13:08:12;;;;;;;2.92;1.23;;;;;;;;;;5076943;28;20210;-49
2022/08/04 13:10:45;;;;;;;1.33;1.17;;;;;;;;;;5078212;28;20503;-43
2022/08/04 13:13:21;;;;;;;3.03;1.05;;;;;;;;;;5076996;28;20670;-44
2022/08/04 13:15:56;;;;;;;3.47;1.00;;;;;;;;;;5076738;28;20260;-45
2022/08/04 13:18:26;;;;;;;2.05;1.17;;;;;;;;;;5078062;28;20200;-47
2022/08/04 13:21:08;;;;;;;4.07;1.17;;;;;;;;;;5077219;28;20249;-47
2022/08/04 13:23:54;;;;;;;2.00;1.30;;;;;;;;;;5077505;28;20537;-45
2022/08/04 13:26:59;;;;;;;3.17;1.23;;;;;;;;;;5077490;28;20593;-44
2022/08/04 13:29:40;;;;;;;1.05;0.90;;;;;;;;;;5077550;28;20501;-44
2022/08/04 13:32:27;;;;;;;2.17;1.17;;;;;;;;;;5077060;28;20652;-45
2022/08/04 13:34:56;;;;;;;2.40;1.30;;;;;;;;;;5076404;28;20272;-47
2022/08/04 13:37:25;;;;;;;1.77;1.20;;;;;;;;;;5077686;28;20214;-50
2022/08/04 13:39:54;;;;;;;1.60;1.23;;;;;;;;;;5076367;28;20705;-46
2022/08/04 13:42:24;;;;;;;4.13;1.20;;;;;;;;;;5076246;28;20230;-47
2022/08/04 13:44:55;;;;;;;7.68;1.10;;;;;;;;;;5076862;28;20199;-48
2022/08/04 13:47:27;;;;;;;2.03;1.00;;;;;;;;;;5076337;28;20207;-44
2022/08/04 13:50:13;;;;;;;2.33;1.10;;;;;;;;;;5075815;28;20188;-48
2022/08/04 13:52:41;;;;;;;2.13;1.20;;;;;;;;;;5077324;28;20241;-49
2022/08/04 13:55:24;;;;;;;2.13;1.30;;;;;;;;;;5076913;28;20207;-47
2022/08/04 13:57:56;;;;;;;2.88;1.25;;;;;;;;;;5075774;28;20634;-44
2022/08/04 14:00:25;;;;;;;2.65;1.17;;;;;;;;;;5076579;28;20214;-45
2022/08/04 14:03:03;;;;;;;2.47;1.42;;;;;;;;;;5075555;28;20243;-43
2022/08/04 14:06:23;;;;;;;2.03;1.20;;;;;;;;;;5076001;28;20207;-44
2022/08/04 14:08:59;;;;;;;1.67;1.10;;;;;;;;;;5076840;28;20213;-43
2022/08/04 14:11:39;;;;;;;2.17;1.38;;;;;;;;;;5076772;28;20229;-48
2022/08/04 14:14:28;;;;;;;5.07;1.45;;;;;;;;;;5076568;28;20507;-43
2022/08/04 14:17:07;;;;;;;2.35;1.10;;;;;;;;;;5076541;28;20203;-47
2022/08/04 14:19:49;;;;;;;3.47;1.17;;;;;;;;;;5076161;28;20203;-46
2022/08/04 14:22:25;;;;;;;3.75;1.40;;;;;;;;;;5076340;28;20242;-47
2022/08/04 14:24:56;;;;;;;3.15;1.30;;;;;;;;;;5076357;28;20184;-44
2022/08/04 14:27:23;;;;;;;2.67;1.40;;;;;;;;;;5076701;28;20646;-43
2022/08/04 14:29:51;;;;;;;3.88;1.42;;;;;;;;;;5076498;28;20227;-43
2022/08/04 14:32:18;;;;;;;1.63;1.27;;;;;;;;;;5076165;28;20211;-43
2022/08/04 14:34:49;;;;;;;1.88;1.55;;;;;;;;;;5075939;28;20286;-50
2022/08/04 14:37:18;;;;;;;7.05;1.63;;;;;;;;;;5075100;28;20542;-43
2022/08/04 14:39:50;;;;;;;3.83;1.48;;;;;;;;;;5076472;28;20220;-50
2022/08/04 14:42:47;;;;;;;3.10;1.27;;;;;;;;;;5076361;28;20554;-48
2022/08/04 14:45:32;;;;;;;1.50;1.40;;;;;;;;;;5075865;28;20236;-46
2022/08/04 14:48:00;;;;;;;2.47;1.40;;;;;;;;;;5076535;28;20591;-43
2022/08/04 14:50:37;;;;;;;4.10;1.30;;;;;;;;;;5075790;28;20203;-48
2022/08/04 14:53:10;;;;;;;1.83;1.35;;;;;;;;;;5076124;28;20183;-43
2022/08/04 14:55:42;;;;;;;3.55;1.30;;;;;;;;;;5075935;28;20215;-49
2022/08/04 14:58:29;;;;;;;2.15;1.38;;;;;;;;;;5075640;28;20192;-44
2022/08/04 15:01:06;;;;;;;2.70;1.33;;;;;;;;;;5074631;28;20261;-46
2022/08/04 15:03:40;;;;;;;2.40;1.75;;;;;;;;;;5075560;28;20243;-45
2022/08/04 15:06:17;;;;;;;1.58;1.23;;;;;;;;;;5075808;28;20203;-45
2022/08/04 15:08:50;;;;;;;1.77;1.38;;;;;;;;;;5076064;28;20199;-49
2022/08/04 15:11:17;;;;;;;2.17;1.40;;;;;;;;;;5075265;28;20541;-46
2022/08/04 15:13:54;;;;;;;2.13;1.50;;;;;;;;;;5073947;28;20204;-47
2022/08/04 15:16:23;;;;;;;3.03;1.50;;;;;;;;;;5075418;28;20209;-45
2022/08/04 15:18:51;;;;;;;2.65;1.20;;;;;;;;;;5075279;28;20265;-46
2022/08/04 15:21:24;;;;;;;2.25;1.55;;;;;;;;;;5075901;28;20203;-48
2022/08/04 15:23:51;;;;;;;3.05;1.20;;;;;;;;;;5075249;28;20527;-47
2022/08/04 15:26:24;;;;;;;3.53;1.33;;;;;;;;;;5074349;28;20650;-45
2022/08/04 15:28:55;;;;;;;1.75;1.60;;;;;;;;;;5074222;28;20207;-46
2022/08/04 15:31:23;;;;;;;1.92;1.30;;;;;;;;;;5074192;28;20199;-46
2022/08/04 15:34:10;;;;;;;3.70;1.30;;;;;;;;;;5074551;28;20199;-49
2022/08/04 15:36:47;;;;;;;5.90;1.60;;;;;;;;;;5074996;28;20199;-49
2022/08/04 15:39:26;;;;;;;6.63;1.70;;;;;;;;;;5074819;28;20198;-47
2022/08/04 15:42:05;;;;;;;2.97;1.67;;;;;;;;;;5074699;28;20226;-44
2022/08/04 15:45:10;;;;;;;2.20;1.40;;;;;;;;;;5075270;28;20199;-48
2022/08/04 15:47:38;;;;;;;3.55;1.33;;;;;;;;;;5075122;28;20192;-46
2022/08/04 15:50:10;;;;;;;3.65;1.50;;;;;;;;;;5074830;28;20264;-45
2022/08/04 15:52:55;;;;;;;1.27;1.17;;;;;;;;;;5075646;28;20215;-47
2022/08/04 15:55:30;;;;;;;3.88;1.52;;;;;;;;;;5075340;28;20179;-45